sensor_id;sensor_type;location;lat;lon;timestamp;P1;durP1;ratioP1;P2;durP2;ratioP2
78197;SDS011;67472;51.554;7.812;2023-06-04T00:02:13;2.08;;;1.63;;
78197;SDS011;67472;51.554;7.812;2023-06-04T00:04:59;2.40;;;1.60;;
78197;SDS011;67472;51.554;7.812;2023-06-04T00:07:45;1.98;;;1.75;;
78197;SDS011;67472;51.554;7.812;2023-06-04T00:10:32;1.60;;;1.50;;
78197;SDS011;67472;51.554;7.812;2023-06-04T00:13:19;3.90;;;1.90;;
78197;SDS011;67472;51.554;7.812;2023-06-04T00:16:05;1.90;;;1.70;;
78197;SDS011;67472;51.554;7.812;2023-06-04T00:18:53;2.13;;;1.83;;
78197;SDS011;67472;51.554;7.812;2023-06-04T00:21:39;3.55;;;1.83;;
78197;SDS011;67472;51.554;7.812;2023-06-04T00:24:25;2.33;;;1.90;;
78197;SDS011;67472;51.554;7.812;2023-06-04T00:27:12;2.22;;;1.92;;
78197;SDS011;67472;51.554;7.812;2023-06-04T00:29:58;3.67;;;3.38;;
78197;SDS011;67472;51.554;7.812;2023-06-04T00:32:44;3.30;;;2.70;;
78197;SDS011;67472;51.554;7.812;2023-06-04T00:35:33;5.35;;;2.13;;
78197;SDS011;67472;51.554;7.812;2023-06-04T00:38:19;2.35;;;1.98;;
78197;SDS011;67472;51.554;7.812;2023-06-04T00:41:05;2.55;;;2.30;;
78197;SDS011;67472;51.554;7.812;2023-06-04T00:43:52;3.03;;;2.30;;
78197;SDS011;67472;51.554;7.812;2023-06-04T00:46:41;2.65;;;2.40;;
78197;SDS011;67472;51.554;7.812;2023-06-04T00:49:29;3.30;;;2.00;;
78197;SDS011;67472;51.554;7.812;2023-06-04T00:52:17;3.78;;;2.50;;
78197;SDS011;67472;51.554;7.812;2023-06-04T00:55:04;2.97;;;2.63;;
78197;SDS011;67472;51.554;7.812;2023-06-04T00:57:50;2.67;;;2.47;;
78197;SDS011;67472;51.554;7.812;2023-06-04T01:00:37;2.95;;;2.13;;
78197;SDS011;67472;51.554;7.812;2023-06-04T01:03:25;2.17;;;1.90;;
78197;SDS011;67472;51.554;7.812;2023-06-04T01:06:19;2.88;;;1.98;;
78197;SDS011;67472;51.554;7.812;2023-06-04T01:09:13;2.38;;;2.17;;
78197;SDS011;67472;51.554;7.812;2023-06-04T01:12:03;2.92;;;1.90;;
78197;SDS011;67472;51.554;7.812;2023-06-04T01:14:49;6.25;;;2.20;;
78197;SDS011;67472;51.554;7.812;2023-06-04T01:17:37;3.72;;;2.65;;
78197;SDS011;67472;51.554;7.812;2023-06-04T01:20:27;3.20;;;2.10;;
78197;SDS011;67472;51.554;7.812;2023-06-04T01:23:21;3.80;;;1.77;;
78197;SDS011;67472;51.554;7.812;2023-06-04T01:26:19;2.40;;;2.20;;
78197;SDS011;67472;51.554;7.812;2023-06-04T01:29:07;2.88;;;2.15;;
78197;SDS011;67472;51.554;7.812;2023-06-04T01:31:54;3.22;;;2.00;;
78197;SDS011;67472;51.554;7.812;2023-06-04T01:34:44;3.17;;;2.00;;
78197;SDS011;67472;51.554;7.812;2023-06-04T01:37:31;3.05;;;2.20;;
78197;SDS011;67472;51.554;7.812;2023-06-04T01:40:18;2.35;;;2.13;;
78197;SDS011;67472;51.554;7.812;2023-06-04T01:43:06;4.50;;;2.40;;
78197;SDS011;67472;51.554;7.812;2023-06-04T01:45:53;2.78;;;2.50;;
78197;SDS011;67472;51.554;7.812;2023-06-04T01:48:41;2.30;;;1.95;;
78197;SDS011;67472;51.554;7.812;2023-06-04T01:51:27;5.15;;;2.47;;
78197;SDS011;67472;51.554;7.812;2023-06-04T01:54:13;3.70;;;2.17;;
78197;SDS011;67472;51.554;7.812;2023-06-04T01:57:01;3.15;;;2.33;;
78197;SDS011;67472;51.554;7.812;2023-06-04T01:59:49;2.22;;;2.03;;
78197;SDS011;67472;51.554;7.812;2023-06-04T02:02:36;4.88;;;2.20;;
78197;SDS011;67472;51.554;7.812;2023-06-04T02:05:23;3.53;;;2.53;;
78197;SDS011;67472;51.554;7.812;2023-06-04T02:08:09;6.35;;;2.88;;
78197;SDS011;67472;51.554;7.812;2023-06-04T02:10:56;4.07;;;2.65;;
78197;SDS011;67472;51.554;7.812;2023-06-04T02:13:43;3.08;;;2.63;;
78197;SDS011;67472;51.554;7.812;2023-06-04T02:16:30;2.97;;;2.00;;
78197;SDS011;67472;51.554;7.812;2023-06-04T02:19:17;3.40;;;2.50;;
78197;SDS011;67472;51.554;7.812;2023-06-04T02:22:04;2.80;;;2.42;;
78197;SDS011;67472;51.554;7.812;2023-06-04T02:24:52;3.20;;;2.35;;
78197;SDS011;67472;51.554;7.812;2023-06-04T02:27:38;2.92;;;2.63;;
78197;SDS011;67472;51.554;7.812;2023-06-04T02:30:25;3.15;;;2.40;;
78197;SDS011;67472;51.554;7.812;2023-06-04T02:33:12;2.72;;;2.38;;
78197;SDS011;67472;51.554;7.812;2023-06-04T02:35:58;4.13;;;2.60;;
78197;SDS011;67472;51.554;7.812;2023-06-04T02:38:45;2.90;;;2.33;;
78197;SDS011;67472;51.554;7.812;2023-06-04T02:41:32;3.13;;;2.60;;
78197;SDS011;67472;51.554;7.812;2023-06-04T02:44:18;3.40;;;2.40;;
78197;SDS011;67472;51.554;7.812;2023-06-04T02:47:05;2.80;;;2.22;;
78197;SDS011;67472;51.554;7.812;2023-06-04T02:49:53;4.47;;;2.45;;
78197;SDS011;67472;51.554;7.812;2023-06-04T02:52:39;6.35;;;2.50;;
78197;SDS011;67472;51.554;7.812;2023-06-04T02:55:26;5.30;;;2.63;;
78197;SDS011;67472;51.554;7.812;2023-06-04T02:58:12;4.15;;;3.33;;
78197;SDS011;67472;51.554;7.812;2023-06-04T03:00:58;2.92;;;2.33;;
78197;SDS011;67472;51.554;7.812;2023-06-04T03:03:45;4.28;;;2.92;;
78197;SDS011;67472;51.554;7.812;2023-06-04T03:06:33;2.63;;;2.33;;
78197;SDS011;67472;51.554;7.812;2023-06-04T03:09:22;3.85;;;2.50;;
78197;SDS011;67472;51.554;7.812;2023-06-04T03:12:09;2.97;;;1.90;;
78197;SDS011;67472;51.554;7.812;2023-06-04T03:14:56;2.78;;;2.05;;
78197;SDS011;67472;51.554;7.812;2023-06-04T03:17:45;2.60;;;2.40;;
78197;SDS011;67472;51.554;7.812;2023-06-04T03:20:32;2.55;;;2.35;;
78197;SDS011;67472;51.554;7.812;2023-06-04T03:23:24;2.63;;;2.42;;
78197;SDS011;67472;51.554;7.812;2023-06-04T03:26:11;2.05;;;1.85;;
78197;SDS011;67472;51.554;7.812;2023-06-04T03:29:02;2.47;;;2.28;;
78197;SDS011;67472;51.554;7.812;2023-06-04T03:31:48;2.40;;;2.20;;
78197;SDS011;67472;51.554;7.812;2023-06-04T03:34:36;3.53;;;2.50;;
78197;SDS011;67472;51.554;7.812;2023-06-04T03:37:23;3.33;;;2.58;;
78197;SDS011;67472;51.554;7.812;2023-06-04T03:40:12;4.00;;;2.83;;
78197;SDS011;67472;51.554;7.812;2023-06-04T03:43:02;5.53;;;3.00;;
78197;SDS011;67472;51.554;7.812;2023-06-04T03:45:50;3.65;;;2.38;;
78197;SDS011;67472;51.554;7.812;2023-06-04T03:48:36;3.75;;;2.90;;
78197;SDS011;67472;51.554;7.812;2023-06-04T03:51:23;6.72;;;3.65;;
78197;SDS011;67472;51.554;7.812;2023-06-04T03:54:10;4.38;;;3.17;;
78197;SDS011;67472;51.554;7.812;2023-06-04T03:56:59;4.75;;;3.38;;
78197;SDS011;67472;51.554;7.812;2023-06-04T03:59:47;4.88;;;3.00;;
78197;SDS011;67472;51.554;7.812;2023-06-04T04:02:33;4.05;;;3.00;;
78197;SDS011;67472;51.554;7.812;2023-06-04T04:05:20;6.15;;;2.38;;
78197;SDS011;67472;51.554;7.812;2023-06-04T04:08:07;2.92;;;2.60;;
78197;SDS011;67472;51.554;7.812;2023-06-04T04:10:54;2.47;;;2.13;;
78197;SDS011;67472;51.554;7.812;2023-06-04T04:13:42;4.32;;;2.55;;
78197;SDS011;67472;51.554;7.812;2023-06-04T04:16:30;9.45;;;2.65;;
78197;SDS011;67472;51.554;7.812;2023-06-04T04:19:16;4.70;;;2.28;;
78197;SDS011;67472;51.554;7.812;2023-06-04T04:22:03;3.88;;;2.17;;
78197;SDS011;67472;51.554;7.812;2023-06-04T04:24:50;3.22;;;2.50;;
78197;SDS011;67472;51.554;7.812;2023-06-04T04:27:36;5.75;;;2.10;;
78197;SDS011;67472;51.554;7.812;2023-06-04T04:30:28;3.97;;;2.22;;
78197;SDS011;67472;51.554;7.812;2023-06-04T04:33:18;5.10;;;2.58;;
78197;SDS011;67472;51.554;7.812;2023-06-04T04:36:05;2.67;;;2.15;;
78197;SDS011;67472;51.554;7.812;2023-06-04T04:38:58;8.48;;;2.33;;
78197;SDS011;67472;51.554;7.812;2023-06-04T04:41:51;10.27;;;2.55;;
78197;SDS011;67472;51.554;7.812;2023-06-04T04:44:37;7.22;;;2.22;;
78197;SDS011;67472;51.554;7.812;2023-06-04T04:47:25;4.38;;;2.47;;
78197;SDS011;67472;51.554;7.812;2023-06-04T04:50:11;2.97;;;2.42;;
78197;SDS011;67472;51.554;7.812;2023-06-04T04:52:57;3.40;;;2.53;;
78197;SDS011;67472;51.554;7.812;2023-06-04T04:55:44;3.28;;;2.38;;
78197;SDS011;67472;51.554;7.812;2023-06-04T04:58:31;3.10;;;2.60;;
78197;SDS011;67472;51.554;7.812;2023-06-04T05:01:19;3.08;;;2.28;;
78197;SDS011;67472;51.554;7.812;2023-06-04T05:04:06;5.85;;;2.80;;
78197;SDS011;67472;51.554;7.812;2023-06-04T05:06:52;5.38;;;2.83;;
78197;SDS011;67472;51.554;7.812;2023-06-04T05:09:40;7.75;;;3.03;;
78197;SDS011;67472;51.554;7.812;2023-06-04T05:12:29;4.93;;;2.78;;
78197;SDS011;67472;51.554;7.812;2023-06-04T05:15:16;4.43;;;2.63;;
78197;SDS011;67472;51.554;7.812;2023-06-04T05:18:17;6.57;;;2.25;;
78197;SDS011;67472;51.554;7.812;2023-06-04T05:21:33;5.15;;;2.42;;
78197;SDS011;67472;51.554;7.812;2023-06-04T05:25:10;4.25;;;2.63;;
78197;SDS011;67472;51.554;7.812;2023-06-04T05:28:42;3.28;;;2.63;;
78197;SDS011;67472;51.554;7.812;2023-06-04T05:32:42;5.03;;;2.85;;
78197;SDS011;67472;51.554;7.812;2023-06-04T05:36:41;3.75;;;2.80;;
78197;SDS011;67472;51.554;7.812;2023-06-04T05:39:36;4.72;;;2.90;;
78197;SDS011;67472;51.554;7.812;2023-06-04T05:42:29;3.42;;;2.65;;
78197;SDS011;67472;51.554;7.812;2023-06-04T05:45:15;3.95;;;2.88;;
78197;SDS011;67472;51.554;7.812;2023-06-04T05:48:03;6.63;;;3.03;;
78197;SDS011;67472;51.554;7.812;2023-06-04T05:50:50;3.00;;;2.50;;
78197;SDS011;67472;51.554;7.812;2023-06-04T05:53:38;3.45;;;2.90;;
78197;SDS011;67472;51.554;7.812;2023-06-04T05:56:25;4.13;;;2.97;;
78197;SDS011;67472;51.554;7.812;2023-06-04T05:59:13;7.18;;;2.88;;
78197;SDS011;67472;51.554;7.812;2023-06-04T06:02:00;3.67;;;3.25;;
78197;SDS011;67472;51.554;7.812;2023-06-04T06:04:47;9.30;;;3.63;;
78197;SDS011;67472;51.554;7.812;2023-06-04T06:07:33;3.28;;;2.90;;
78197;SDS011;67472;51.554;7.812;2023-06-04T06:10:24;6.60;;;2.97;;
78197;SDS011;67472;51.554;7.812;2023-06-04T06:13:11;4.40;;;2.90;;
78197;SDS011;67472;51.554;7.812;2023-06-04T06:15:57;3.83;;;3.20;;
78197;SDS011;67472;51.554;7.812;2023-06-04T06:18:44;4.00;;;3.10;;
78197;SDS011;67472;51.554;7.812;2023-06-04T06:21:31;4.68;;;2.90;;
78197;SDS011;67472;51.554;7.812;2023-06-04T06:24:17;3.08;;;2.50;;
78197;SDS011;67472;51.554;7.812;2023-06-04T06:27:05;4.22;;;3.20;;
78197;SDS011;67472;51.554;7.812;2023-06-04T06:29:51;2.92;;;2.63;;
78197;SDS011;67472;51.554;7.812;2023-06-04T06:32:37;3.28;;;2.67;;
78197;SDS011;67472;51.554;7.812;2023-06-04T06:35:23;4.03;;;3.00;;
78197;SDS011;67472;51.554;7.812;2023-06-04T06:38:09;2.88;;;2.45;;
78197;SDS011;67472;51.554;7.812;2023-06-04T06:40:55;2.60;;;2.40;;
78197;SDS011;67472;51.554;7.812;2023-06-04T06:43:43;3.63;;;2.80;;
78197;SDS011;67472;51.554;7.812;2023-06-04T06:46:29;3.03;;;2.72;;
78197;SDS011;67472;51.554;7.812;2023-06-04T06:49:16;6.50;;;2.92;;
78197;SDS011;67472;51.554;7.812;2023-06-04T06:52:02;3.05;;;2.50;;
78197;SDS011;67472;51.554;7.812;2023-06-04T06:54:49;3.08;;;2.50;;
78197;SDS011;67472;51.554;7.812;2023-06-04T06:57:35;4.60;;;3.08;;
78197;SDS011;67472;51.554;7.812;2023-06-04T07:00:23;3.97;;;3.13;;
78197;SDS011;67472;51.554;7.812;2023-06-04T07:03:09;3.25;;;2.70;;
78197;SDS011;67472;51.554;7.812;2023-06-04T07:05:55;6.13;;;2.90;;
78197;SDS011;67472;51.554;7.812;2023-06-04T07:08:42;4.07;;;2.90;;
78197;SDS011;67472;51.554;7.812;2023-06-04T07:11:28;5.75;;;3.08;;
78197;SDS011;67472;51.554;7.812;2023-06-04T07:14:15;6.60;;;3.63;;
78197;SDS011;67472;51.554;7.812;2023-06-04T07:17:02;2.85;;;2.55;;
78197;SDS011;67472;51.554;7.812;2023-06-04T07:19:49;2.83;;;2.30;;
78197;SDS011;67472;51.554;7.812;2023-06-04T07:22:36;2.50;;;2.30;;
78197;SDS011;67472;51.554;7.812;2023-06-04T07:25:22;3.38;;;2.03;;
78197;SDS011;67472;51.554;7.812;2023-06-04T07:28:10;3.17;;;2.60;;
78197;SDS011;67472;51.554;7.812;2023-06-04T07:30:56;3.63;;;2.15;;
78197;SDS011;67472;51.554;7.812;2023-06-04T07:33:44;4.07;;;2.63;;
78197;SDS011;67472;51.554;7.812;2023-06-04T07:36:30;1.83;;;1.70;;
78197;SDS011;67472;51.554;7.812;2023-06-04T07:39:17;4.43;;;2.40;;
78197;SDS011;67472;51.554;7.812;2023-06-04T07:42:04;5.22;;;2.08;;
78197;SDS011;67472;51.554;7.812;2023-06-04T07:44:51;2.45;;;2.05;;
78197;SDS011;67472;51.554;7.812;2023-06-04T07:47:38;4.57;;;2.00;;
78197;SDS011;67472;51.554;7.812;2023-06-04T07:50:25;2.55;;;1.95;;
78197;SDS011;67472;51.554;7.812;2023-06-04T07:53:11;5.65;;;2.30;;
78197;SDS011;67472;51.554;7.812;2023-06-04T07:55:58;3.22;;;2.53;;
78197;SDS011;67472;51.554;7.812;2023-06-04T07:58:44;2.10;;;1.58;;
78197;SDS011;67472;51.554;7.812;2023-06-04T08:01:31;2.20;;;1.90;;
78197;SDS011;67472;51.554;7.812;2023-06-04T08:04:18;3.78;;;2.72;;
78197;SDS011;67472;51.554;7.812;2023-06-04T08:07:06;2.58;;;2.10;;
78197;SDS011;67472;51.554;7.812;2023-06-04T08:09:52;4.63;;;2.35;;
78197;SDS011;67472;51.554;7.812;2023-06-04T08:12:40;4.03;;;1.75;;
78197;SDS011;67472;51.554;7.812;2023-06-04T08:15:26;2.42;;;1.95;;
78197;SDS011;67472;51.554;7.812;2023-06-04T08:18:32;6.10;;;2.17;;
78197;SDS011;67472;51.554;7.812;2023-06-04T08:21:28;3.55;;;2.25;;
78197;SDS011;67472;51.554;7.812;2023-06-04T08:24:34;5.03;;;2.28;;
78197;SDS011;67472;51.554;7.812;2023-06-04T08:27:31;3.53;;;2.38;;
78197;SDS011;67472;51.554;7.812;2023-06-04T08:30:21;4.35;;;2.60;;
78197;SDS011;67472;51.554;7.812;2023-06-04T08:33:28;6.55;;;2.40;;
78197;SDS011;67472;51.554;7.812;2023-06-04T08:36:16;3.20;;;2.17;;
78197;SDS011;67472;51.554;7.812;2023-06-04T08:39:02;4.28;;;2.42;;
78197;SDS011;67472;51.554;7.812;2023-06-04T08:41:51;2.50;;;2.30;;
78197;SDS011;67472;51.554;7.812;2023-06-04T08:44:38;2.45;;;2.05;;
78197;SDS011;67472;51.554;7.812;2023-06-04T08:47:25;2.53;;;2.00;;
78197;SDS011;67472;51.554;7.812;2023-06-04T08:50:14;3.65;;;2.53;;
78197;SDS011;67472;51.554;7.812;2023-06-04T08:53:04;2.60;;;1.92;;
78197;SDS011;67472;51.554;7.812;2023-06-04T08:55:51;8.48;;;2.47;;
78197;SDS011;67472;51.554;7.812;2023-06-04T08:58:40;2.38;;;2.17;;
78197;SDS011;67472;51.554;7.812;2023-06-04T09:01:29;5.55;;;2.50;;
78197;SDS011;67472;51.554;7.812;2023-06-04T09:04:18;2.40;;;2.20;;
78197;SDS011;67472;51.554;7.812;2023-06-04T09:07:04;3.95;;;2.65;;
78197;SDS011;67472;51.554;7.812;2023-06-04T09:09:51;3.78;;;2.55;;
78197;SDS011;67472;51.554;7.812;2023-06-04T09:12:37;2.58;;;2.30;;
78197;SDS011;67472;51.554;7.812;2023-06-04T09:15:29;2.88;;;2.40;;
78197;SDS011;67472;51.554;7.812;2023-06-04T09:18:15;3.10;;;2.25;;
78197;SDS011;67472;51.554;7.812;2023-06-04T09:21:02;3.40;;;2.53;;
78197;SDS011;67472;51.554;7.812;2023-06-04T09:23:50;5.30;;;2.58;;
78197;SDS011;67472;51.554;7.812;2023-06-04T09:26:37;2.20;;;2.00;;
78197;SDS011;67472;51.554;7.812;2023-06-04T09:29:23;11.75;;;2.78;;
78197;SDS011;67472;51.554;7.812;2023-06-04T09:32:10;5.03;;;2.03;;
78197;SDS011;67472;51.554;7.812;2023-06-04T09:35:07;4.22;;;1.80;;
78197;SDS011;67472;51.554;7.812;2023-06-04T09:37:56;6.03;;;2.63;;
78197;SDS011;67472;51.554;7.812;2023-06-04T09:40:44;6.60;;;2.38;;
78197;SDS011;67472;51.554;7.812;2023-06-04T09:43:32;3.05;;;2.22;;
78197;SDS011;67472;51.554;7.812;2023-06-04T09:46:19;3.75;;;1.85;;
78197;SDS011;67472;51.554;7.812;2023-06-04T09:49:07;3.83;;;2.15;;
78197;SDS011;67472;51.554;7.812;2023-06-04T09:51:53;2.83;;;1.80;;
78197;SDS011;67472;51.554;7.812;2023-06-04T09:54:40;7.70;;;2.00;;
78197;SDS011;67472;51.554;7.812;2023-06-04T09:57:29;5.68;;;2.10;;
78197;SDS011;67472;51.554;7.812;2023-06-04T10:00:17;3.03;;;1.80;;
78197;SDS011;67472;51.554;7.812;2023-06-04T10:03:05;3.45;;;1.88;;
78197;SDS011;67472;51.554;7.812;2023-06-04T10:05:56;5.90;;;1.90;;
78197;SDS011;67472;51.554;7.812;2023-06-04T10:08:45;3.15;;;1.90;;
78197;SDS011;67472;51.554;7.812;2023-06-04T10:11:33;4.85;;;1.80;;
78197;SDS011;67472;51.554;7.812;2023-06-04T10:14:21;2.70;;;2.00;;
78197;SDS011;67472;51.554;7.812;2023-06-04T10:17:09;2.42;;;2.03;;
78197;SDS011;67472;51.554;7.812;2023-06-04T10:19:58;1.92;;;1.73;;
78197;SDS011;67472;51.554;7.812;2023-06-04T10:22:51;4.22;;;1.85;;
78197;SDS011;67472;51.554;7.812;2023-06-04T10:25:37;2.75;;;2.05;;
78197;SDS011;67472;51.554;7.812;2023-06-04T10:28:24;2.05;;;1.55;;
78197;SDS011;67472;51.554;7.812;2023-06-04T10:31:13;3.08;;;1.85;;
78197;SDS011;67472;51.554;7.812;2023-06-04T10:34:01;1.77;;;1.65;;
78197;SDS011;67472;51.554;7.812;2023-06-04T10:36:48;4.05;;;1.95;;
78197;SDS011;67472;51.554;7.812;2023-06-04T10:39:35;3.67;;;1.88;;
78197;SDS011;67472;51.554;7.812;2023-06-04T10:42:22;3.40;;;1.90;;
78197;SDS011;67472;51.554;7.812;2023-06-04T10:45:09;1.73;;;1.50;;
78197;SDS011;67472;51.554;7.812;2023-06-04T10:47:59;3.60;;;1.67;;
78197;SDS011;67472;51.554;7.812;2023-06-04T10:50:50;2.63;;;1.63;;
78197;SDS011;67472;51.554;7.812;2023-06-04T10:53:36;3.88;;;1.85;;
78197;SDS011;67472;51.554;7.812;2023-06-04T10:56:28;3.67;;;1.80;;
78197;SDS011;67472;51.554;7.812;2023-06-04T10:59:17;5.40;;;1.40;;
78197;SDS011;67472;51.554;7.812;2023-06-04T11:02:04;2.10;;;1.70;;
78197;SDS011;67472;51.554;7.812;2023-06-04T11:04:58;2.53;;;1.58;;
78197;SDS011;67472;51.554;7.812;2023-06-04T11:07:50;1.85;;;1.50;;
78197;SDS011;67472;51.554;7.812;2023-06-04T11:10:37;2.90;;;1.63;;
78197;SDS011;67472;51.554;7.812;2023-06-04T11:13:26;1.77;;;1.50;;
78197;SDS011;67472;51.554;7.812;2023-06-04T11:16:16;3.80;;;1.65;;
78197;SDS011;67472;51.554;7.812;2023-06-04T11:19:03;2.20;;;1.58;;
78197;SDS011;67472;51.554;7.812;2023-06-04T11:21:49;4.25;;;2.03;;
78197;SDS011;67472;51.554;7.812;2023-06-04T11:24:35;2.63;;;1.63;;
78197;SDS011;67472;51.554;7.812;2023-06-04T11:27:22;4.57;;;1.10;;
78197;SDS011;67472;51.554;7.812;2023-06-04T11:30:10;5.03;;;1.55;;
78197;SDS011;67472;51.554;7.812;2023-06-04T11:33:00;1.52;;;1.20;;
78197;SDS011;67472;51.554;7.812;2023-06-04T11:35:47;5.20;;;1.40;;
78197;SDS011;67472;51.554;7.812;2023-06-04T11:38:33;4.45;;;1.42;;
78197;SDS011;67472;51.554;7.812;2023-06-04T11:41:19;3.70;;;1.75;;
78197;SDS011;67472;51.554;7.812;2023-06-04T11:44:06;6.50;;;1.70;;
78197;SDS011;67472;51.554;7.812;2023-06-04T11:46:54;1.50;;;1.40;;
78197;SDS011;67472;51.554;7.812;2023-06-04T11:49:40;2.15;;;1.50;;
78197;SDS011;67472;51.554;7.812;2023-06-04T11:52:27;3.67;;;1.60;;
78197;SDS011;67472;51.554;7.812;2023-06-04T11:55:14;1.60;;;1.45;;
78197;SDS011;67472;51.554;7.812;2023-06-04T11:58:05;1.58;;;1.30;;
78197;SDS011;67472;51.554;7.812;2023-06-04T12:00:51;3.30;;;1.40;;
78197;SDS011;67472;51.554;7.812;2023-06-04T12:03:40;2.28;;;1.42;;
78197;SDS011;67472;51.554;7.812;2023-06-04T12:06:27;1.50;;;1.40;;
78197;SDS011;67472;51.554;7.812;2023-06-04T12:09:19;2.03;;;1.38;;
78197;SDS011;67472;51.554;7.812;2023-06-04T12:12:06;3.08;;;1.40;;
78197;SDS011;67472;51.554;7.812;2023-06-04T12:14:57;2.70;;;1.73;;
78197;SDS011;67472;51.554;7.812;2023-06-04T12:17:48;2.00;;;1.55;;
78197;SDS011;67472;51.554;7.812;2023-06-04T12:20:38;2.40;;;1.30;;
78197;SDS011;67472;51.554;7.812;2023-06-04T12:23:26;3.30;;;1.30;;
78197;SDS011;67472;51.554;7.812;2023-06-04T12:26:22;3.05;;;1.33;;
78197;SDS011;67472;51.554;7.812;2023-06-04T12:29:13;3.22;;;1.77;;
78197;SDS011;67472;51.554;7.812;2023-06-04T12:32:04;3.97;;;1.75;;
78197;SDS011;67472;51.554;7.812;2023-06-04T12:34:53;3.88;;;1.50;;
78197;SDS011;67472;51.554;7.812;2023-06-04T12:37:41;1.85;;;1.40;;
78197;SDS011;67472;51.554;7.812;2023-06-04T12:40:27;1.58;;;1.45;;
78197;SDS011;67472;51.554;7.812;2023-06-04T12:43:14;2.88;;;1.98;;
78197;SDS011;67472;51.554;7.812;2023-06-04T12:46:00;2.33;;;1.85;;
78197;SDS011;67472;51.554;7.812;2023-06-04T12:48:47;5.15;;;1.85;;
78197;SDS011;67472;51.554;7.812;2023-06-04T12:51:33;3.17;;;1.50;;
78197;SDS011;67472;51.554;7.812;2023-06-04T12:54:22;2.85;;;1.30;;
78197;SDS011;67472;51.554;7.812;2023-06-04T12:57:08;2.83;;;1.23;;
78197;SDS011;67472;51.554;7.812;2023-06-04T12:59:55;2.25;;;1.38;;
78197;SDS011;67472;51.554;7.812;2023-06-04T13:02:42;3.92;;;1.60;;
78197;SDS011;67472;51.554;7.812;2023-06-04T13:05:28;1.80;;;1.50;;
78197;SDS011;67472;51.554;7.812;2023-06-04T13:08:14;2.00;;;1.50;;
78197;SDS011;67472;51.554;7.812;2023-06-04T13:11:03;2.53;;;1.67;;
78197;SDS011;67472;51.554;7.812;2023-06-04T13:13:50;3.10;;;1.35;;
78197;SDS011;67472;51.554;7.812;2023-06-04T13:16:37;4.82;;;1.80;;
78197;SDS011;67472;51.554;7.812;2023-06-04T13:19:23;2.22;;;1.33;;
78197;SDS011;67472;51.554;7.812;2023-06-04T13:22:10;3.90;;;1.52;;
78197;SDS011;67472;51.554;7.812;2023-06-04T13:24:56;2.10;;;1.80;;
78197;SDS011;67472;51.554;7.812;2023-06-04T13:27:44;2.42;;;1.90;;
78197;SDS011;67472;51.554;7.812;2023-06-04T13:30:30;2.55;;;1.55;;
78197;SDS011;67472;51.554;7.812;2023-06-04T13:33:17;3.38;;;1.88;;
78197;SDS011;67472;51.554;7.812;2023-06-04T13:36:05;7.05;;;1.33;;
78197;SDS011;67472;51.554;7.812;2023-06-04T13:38:52;1.98;;;1.48;;
78197;SDS011;67472;51.554;7.812;2023-06-04T13:41:39;1.23;;;1.10;;
78197;SDS011;67472;51.554;7.812;2023-06-04T13:44:27;4.00;;;1.63;;
78197;SDS011;67472;51.554;7.812;2023-06-04T13:47:13;2.65;;;1.50;;
78197;SDS011;67472;51.554;7.812;2023-06-04T13:49:59;6.90;;;1.58;;
78197;SDS011;67472;51.554;7.812;2023-06-04T13:52:46;2.13;;;1.60;;
78197;SDS011;67472;51.554;7.812;2023-06-04T13:55:32;1.75;;;1.63;;
78197;SDS011;67472;51.554;7.812;2023-06-04T13:58:18;6.97;;;1.73;;
78197;SDS011;67472;51.554;7.812;2023-06-04T14:01:06;2.97;;;1.80;;
78197;SDS011;67472;51.554;7.812;2023-06-04T14:04:05;1.50;;;1.40;;
78197;SDS011;67472;51.554;7.812;2023-06-04T14:06:51;2.10;;;1.85;;
78197;SDS011;67472;51.554;7.812;2023-06-04T14:09:37;2.42;;;1.58;;
78197;SDS011;67472;51.554;7.812;2023-06-04T14:12:24;1.88;;;1.70;;
78197;SDS011;67472;51.554;7.812;2023-06-04T14:15:10;2.75;;;1.42;;
78197;SDS011;67472;51.554;7.812;2023-06-04T14:17:58;6.95;;;1.67;;
78197;SDS011;67472;51.554;7.812;2023-06-04T14:20:45;2.58;;;1.80;;
78197;SDS011;67472;51.554;7.812;2023-06-04T14:23:32;2.30;;;1.73;;
78197;SDS011;67472;51.554;7.812;2023-06-04T14:26:18;1.67;;;1.50;;
78197;SDS011;67472;51.554;7.812;2023-06-04T14:29:05;3.33;;;1.60;;
78197;SDS011;67472;51.554;7.812;2023-06-04T14:31:51;2.40;;;1.60;;
78197;SDS011;67472;51.554;7.812;2023-06-04T14:34:38;2.78;;;1.80;;
78197;SDS011;67472;51.554;7.812;2023-06-04T14:37:24;2.05;;;1.75;;
78197;SDS011;67472;51.554;7.812;2023-06-04T14:40:11;5.05;;;1.83;;
78197;SDS011;67472;51.554;7.812;2023-06-04T14:42:57;2.30;;;1.70;;
78197;SDS011;67472;51.554;7.812;2023-06-04T14:45:43;2.55;;;1.60;;
78197;SDS011;67472;51.554;7.812;2023-06-04T14:48:30;2.20;;;1.77;;
78197;SDS011;67472;51.554;7.812;2023-06-04T14:51:18;4.20;;;2.28;;
78197;SDS011;67472;51.554;7.812;2023-06-04T14:54:06;3.35;;;1.80;;
78197;SDS011;67472;51.554;7.812;2023-06-04T14:56:52;3.72;;;2.22;;
78197;SDS011;67472;51.554;7.812;2023-06-04T14:59:38;2.33;;;2.10;;
78197;SDS011;67472;51.554;7.812;2023-06-04T15:02:24;3.88;;;1.98;;
78197;SDS011;67472;51.554;7.812;2023-06-04T15:05:11;5.90;;;1.80;;
78197;SDS011;67472;51.554;7.812;2023-06-04T15:07:58;2.58;;;1.90;;
78197;SDS011;67472;51.554;7.812;2023-06-04T15:10:45;2.40;;;1.92;;
78197;SDS011;67472;51.554;7.812;2023-06-04T15:13:31;2.10;;;1.90;;
78197;SDS011;67472;51.554;7.812;2023-06-04T15:16:18;2.40;;;2.20;;
78197;SDS011;67472;51.554;7.812;2023-06-04T15:19:04;4.40;;;2.17;;
78197;SDS011;67472;51.554;7.812;2023-06-04T15:21:51;6.10;;;2.58;;
78197;SDS011;67472;51.554;7.812;2023-06-04T15:24:38;3.50;;;2.08;;
78197;SDS011;67472;51.554;7.812;2023-06-04T15:27:24;2.33;;;1.80;;
78197;SDS011;67472;51.554;7.812;2023-06-04T15:30:11;3.53;;;1.80;;
78197;SDS011;67472;51.554;7.812;2023-06-04T15:32:58;2.85;;;2.20;;
78197;SDS011;67472;51.554;7.812;2023-06-04T15:35:45;2.03;;;1.83;;
78197;SDS011;67472;51.554;7.812;2023-06-04T15:38:31;3.33;;;1.85;;
78197;SDS011;67472;51.554;7.812;2023-06-04T15:41:19;8.40;;;2.05;;
78197;SDS011;67472;51.554;7.812;2023-06-04T15:44:06;2.65;;;1.80;;
78197;SDS011;67472;51.554;7.812;2023-06-04T15:46:52;2.47;;;1.83;;
78197;SDS011;67472;51.554;7.812;2023-06-04T15:49:38;6.38;;;1.92;;
78197;SDS011;67472;51.554;7.812;2023-06-04T15:52:25;4.43;;;1.80;;
78197;SDS011;67472;51.554;7.812;2023-06-04T15:55:11;2.33;;;2.00;;
78197;SDS011;67472;51.554;7.812;2023-06-04T15:57:59;2.00;;;1.73;;
78197;SDS011;67472;51.554;7.812;2023-06-04T16:00:45;3.40;;;2.10;;
78197;SDS011;67472;51.554;7.812;2023-06-04T16:03:31;3.05;;;2.03;;
78197;SDS011;67472;51.554;7.812;2023-06-04T16:06:18;3.47;;;1.92;;
78197;SDS011;67472;51.554;7.812;2023-06-04T16:09:04;3.92;;;1.70;;
78197;SDS011;67472;51.554;7.812;2023-06-04T16:11:50;2.63;;;1.80;;
78197;SDS011;67472;51.554;7.812;2023-06-04T16:14:38;3.80;;;1.98;;
78197;SDS011;67472;51.554;7.812;2023-06-04T16:17:24;6.65;;;1.75;;
78197;SDS011;67472;51.554;7.812;2023-06-04T16:20:10;2.35;;;1.65;;
78197;SDS011;67472;51.554;7.812;2023-06-04T16:22:57;5.28;;;1.80;;
78197;SDS011;67472;51.554;7.812;2023-06-04T16:25:44;5.47;;;1.90;;
78197;SDS011;67472;51.554;7.812;2023-06-04T16:28:30;1.90;;;1.50;;
78197;SDS011;67472;51.554;7.812;2023-06-04T16:31:18;4.97;;;1.92;;
78197;SDS011;67472;51.554;7.812;2023-06-04T16:34:04;3.38;;;1.40;;
78197;SDS011;67472;51.554;7.812;2023-06-04T16:36:51;2.33;;;1.52;;
78197;SDS011;67472;51.554;7.812;2023-06-04T16:39:37;2.10;;;1.65;;
78197;SDS011;67472;51.554;7.812;2023-06-04T16:42:24;2.63;;;1.40;;
78197;SDS011;67472;51.554;7.812;2023-06-04T16:45:10;4.40;;;1.75;;
78197;SDS011;67472;51.554;7.812;2023-06-04T16:47:58;1.35;;;1.13;;
78197;SDS011;67472;51.554;7.812;2023-06-04T16:50:44;3.45;;;1.50;;
78197;SDS011;67472;51.554;7.812;2023-06-04T16:53:31;1.90;;;1.27;;
78197;SDS011;67472;51.554;7.812;2023-06-04T16:56:17;3.70;;;1.75;;